Billings, MT

7:50 AM MDT on September 18, 2014 (GMT -0600)
Billings Logan International | Change Station
CLOSE
Current Station
Airport
Location: Billings,
Elevation: 3570 ft
Nearby Weather Stations

Elev 3570 ft 45.81 °N, 108.54 °W | Updated 57 minutes ago

Mostly Cloudy
Mostly Cloudy
65 °F
Feels Like 65 °F
N
15
Wind Variable Wind from SW

Today
High -- | Low -- °F
--% Chance of Precip.
Yesterday
High -- | Low -- °F
Precip. -- in
6:56 AM 7:19 PM
Waning Crescent, 27% visible
Pressure 29.69 in
Visibility 10.0 miles
Clouds Few 8500 ft
Mostly Cloudy 12000 ft
Mostly Cloudy 20000 ft
Dew Point 46 °F
Humidity 50%
Rainfall 0.00 in
Snow Depth 0 in , 0 in , 0 in
UV 0 out of 12
Pollen 6.10 out of 12
Air Quality Not available.
Flu Activity Not available.
METAR KBIL 181253Z 23013KT 10SM FEW085 BKN120 BKN200 18/08 A2979 RMK AO2 SLP054 ACC N-E T01830078

More Conditions Fewer Conditions

Pressure 29.69 in
Visibility 10.0 miles
Clouds Few 8500 ft
Mostly Cloudy 12000 ft
Mostly Cloudy 20000 ft
Dew Point 46 °F
Humidity 50%
Rainfall 0.00 in
Snow Depth 0 in , 0 in , 0 in
UV 0 out of 12
Pollen 6.10 out of 12
Air Quality Not available.
Flu Activity Not available.
METAR KBIL 181253Z 23013KT 10SM FEW085 BKN120 BKN200 18/08 A2979 RMK AO2 SLP054 ACC N-E T01830078

More Conditions Fewer Conditions

10-Day Weather Forecast

Almanac

Astronomy

Sep. 18, 2014 Rise Set
Actual Time 6:56 AM MDT 7:19 PM MDT
Civil Twilight 6:26 AM MDT 7:48 PM MDT
Nautical Twilight 5:50 AM MDT 8:24 PM MDT
Astronomical Twilight 5:14 AM MDT 9:00 PM MDT
Moon 1:38 AM MDT 4:23 PM MDT
Length of Visible Light 13h 22m
Length of Day
12h 23m
Tomorrow will be 3m 12s shorter.
Waning Crescent, 27% of the Moon is Illuminated
Today
Waning Crescent
Sep 24
New
Oct 1
First Quarter
Oct 8
Full
Oct 15
Last Quarter

Today's Extremes

State Highs State Lows

Community

WunderPhotos

Upload Photos

1,754,347 photos uploaded!

Nearby

Snow Depth

Station Depth Elevation
Brackett Creek 0 in 7320 ft
Daisy Peak 0 in 7600 ft
Mount Lockhart 0 in 6400 ft
Waldron 1 in 5600 ft
Stuart Mountain 0 in 7400 ft

Earthquake Activity

City Distance Mag. Time & Date
No recent earthquake activity has been reported nearby.
Minimum magnitude displayed is 2.5.

Coastal Water Temperatures

Place Temperature
No Stations Reporting

Nearby Weather Stations